• Join FlightAware (Why Join?)
  • Login
  • US Flag 
10:06PM EDT


 

Airport Tracker/Info


-or-


 

Live Flight TrackerFlight Track Log ✈ N528QS ✈ 26-Jul-2013 ✈ KEGE - KSLC

Flight Track Log - Related Links

Times and Time Zones

All times are in EDT time to prevent confusion due to time zone crossing. See the N528QS flight status page for this flight to view local times or setup timezone preferences in your user account.

Time Position Orientation Groundspeed Altitude Reporting Facility
EDT Latitude Longitude Course Direction KTS MPH feet Rate Location/Type
03:13PM 39.6186 -107.0208 260° West 223 257 11,900  Level Denver Center
03:14PM 39.6981 -107.0069 North 321 369 14,000 3,240 Climbing Denver Center
03:15PM 39.7700 -107.0400 341° North 334 384 18,600 3,720 Climbing Denver Center
03:16PM 40.0014 -106.5389 95° East  Level FlightAware Approximate
03:16PM 39.7942 -107.1478 286° West 314 361 21,700  Level Denver Center
03:17PM 40.0238 -106.6714 283° West  Level Estimated
03:17PM 39.8403 -107.2828 294° West 372 428 24,400  Level Denver Center
03:18PM 39.8961 -107.4311 296° West 410 472 26,400 2,040 Climbing Denver Center
03:19PM 39.9442 -107.5700 294° West 438 504 28,700 3,000 Climbing Denver Center
03:20PM 39.9717 -107.7439 282° West 438 504 32,700 3,300 Climbing Denver Center
03:21PM 39.9828 -107.8889 276° West 422 486 35,600 1,560 Climbing Denver Center
03:22PM 39.9953 -108.0547 276° West 415 478 36,000 240 Climbing Denver Center
03:23PM 40.0086 -108.2036 277° West 429 494 36,100 960 Climbing Denver Center
03:24PM 40.0231 -108.3758 276° West 432 497 38,100 1,920 Climbing Denver Center
03:25PM 40.0342 -108.5219 276° West 426 490 39,900 900 Climbing Salt Lake Center
03:26PM 40.0450 -108.6656 276° West 421 484 40,000  Climbing Salt Lake Center
03:27PM 40.0575 -108.8317 276° West 416 479 40,000  Level Salt Lake Center
03:28PM 40.0683 -108.9756 276° West 419 482 40,000  Level Salt Lake Center
03:29PM 40.0808 -109.1431 276° West 418 481 40,000  Level Salt Lake Center
03:30PM 40.0881 -109.2878 274° West 418 481 40,000  Level Salt Lake Center
03:31PM 40.0933 -109.4575 272° West 420 483 40,000  Level Salt Lake Center
03:33PM 40.0975 -109.6022 272° West 418 481 40,000 -780 Level Salt Lake Center
03:34PM 40.1025 -109.7706 272° West 417 480 38,400 -1,800 Descending Salt Lake Center
03:35PM 40.1069 -109.9139 272° West 415 478 36,400 -2,040 Descending Salt Lake Center
03:36PM 40.1119 -110.0858 272° West 423 487 34,300 -1,980 Descending Salt Lake Center
03:37PM 40.1153 -110.2386 272° West 437 503 32,400 -1,860 Descending Salt Lake Center
03:38PM 40.1189 -110.3942 272° West 445 512 30,500 -2,160 Descending Salt Lake Center
03:39PM 40.1242 -110.5814 272° West 461 531 28,000 -2,220 Descending Salt Lake Center
03:40PM 40.1281 -110.7453 272° West 470 541 26,000 -2,100 Descending Salt Lake Center
03:41PM 40.1308 -110.9294 271° West 457 526 23,700 -2,160 Descending Salt Lake Center
03:42PM 40.1353 -111.1031 272° West 449 517 21,600 -2,040 Descending Salt Lake Center
03:43PM 40.1375 -111.2444 271° West 400 460 19,600 -1,800 Descending Salt Lake Center
03:44PM 40.1328 -111.3703 267° West 355 409 18,000 -1,380 Descending Salt Lake Center
03:45PM 40.1308 -111.4847 269° West 320 368 16,800 -1,020 Descending Salt Lake Center
03:46PM 40.1461 -111.5944 280° West 309 356 15,900 -1,200 Descending Salt Lake Center
03:46PM 40.1667 -111.6644 291° West 308 354 15,000 -1,440 Descending Salt Lake Center
03:47PM 40.1861 -111.6928 312° West 303 349 14,400 -660 Descending Salt Lake Center
03:48PM 40.2564 -111.7856 315° West 299 344 14,000 -600 Descending Salt Lake Center
03:49PM 40.2856 -111.8178 320° Northwest 276 318 13,500 -1,260 Descending Salt Lake Center
03:49PM 40.3183 -111.8369 336° Northwest 266 306 12,700 -1,680 Descending Salt Lake Center
03:50PM 40.3478 -111.8697 320° Northwest 268 308 11,800 -1,680 Descending Salt Lake Center
03:50PM 40.3808 -111.8881 337° Northwest 264 304 11,000 -660 Descending Salt Lake Center
03:51PM 40.4442 -111.9253 336° Northwest 245 282 10,800 -780 Descending Salt Lake Center
03:52PM 40.5100 -111.9322 355° North 240 276 9,400 -1,500 Descending Salt Lake Center
03:53PM 40.5783 -111.9406 355° North 248 285 7,800 -1,440 Descending Salt Lake Center
03:54PM 40.6539 -111.9494 355° North 222 255 6,500 -1,020 Descending Salt Lake Center
03:55PM 40.7017 -111.9553 355° North 177 204 5,700 -780 Descending Salt Lake Center
03:56PM 40.7406 -111.9600 355° North 141 162 4,900 -720 Descending Salt Lake Center
03:57PM 40.7753 -111.9625 357° North 128 147 4,300 -600 Descending Salt Lake Center
03:59PM 40.7833 -111.9667 North  Level FlightAware Approximate
04:06PM 40.7884 -111.9778 North  Level Estimated